Time;durP1;ratioP1;P1;durP2;ratioP2;P2;SDS_P1;SDS_P2;PMS_P1;PMS_P2;Temp;Humidity;BMP_temperature;BMP_pressure;BME280_temperature;BME280_humidity;BME280_pressure;Samples;Min_cycle;Max_cycle;Signal;HPM_P1;HPM_P2
2021/06/17 00:01:52;;;;;;;4.85;3.28;;;23.60;59.00;;;;;;5085555;28;27376;-64
2021/06/17 00:04:36;;;;;;;5.32;3.42;;;23.60;58.90;;;;;;5085668;28;26942;-64
2021/06/17 00:07:21;;;;;;;4.45;3.47;;;23.60;58.90;;;;;;5083726;28;27419;-64
2021/06/17 00:10:07;;;;;;;4.60;3.40;;;23.50;59.00;;;;;;5084932;28;27333;-64
2021/06/17 00:12:52;;;;;;;4.38;3.03;;;23.50;59.00;;;;;;5085672;28;27493;-64
2021/06/17 00:15:37;;;;;;;3.28;2.97;;;23.50;58.90;;;;;;5098606;27;27399;-64
2021/06/17 00:18:22;;;;;;;4.45;3.13;;;23.40;58.70;;;;;;5084887;28;27406;-65
2021/06/17 00:21:06;;;;;;;3.30;2.70;;;23.40;58.80;;;;;;5085492;28;27331;-64
2021/06/17 00:23:52;;;;;;;3.55;2.92;;;23.30;58.90;;;;;;5085230;28;27494;-63
2021/06/17 00:26:36;;;;;;;3.45;3.13;;;23.20;58.90;;;;;;5084687;28;27375;-64
2021/06/17 00:29:22;;;;;;;5.70;2.92;;;23.20;59.10;;;;;;5085233;28;27325;-64
2021/06/17 00:32:07;;;;;;;3.95;2.53;;;23.20;59.20;;;;;;5084639;28;27378;-64
2021/06/17 00:34:51;;;;;;;6.93;3.08;;;23.10;59.20;;;;;;5085292;28;27344;-64
2021/06/17 00:37:36;;;;;;;3.00;2.80;;;23.10;59.30;;;;;;5085418;28;27380;-65
2021/06/17 00:40:21;;;;;;;3.78;3.20;;;23.00;59.30;;;;;;5081258;28;27386;-64
2021/06/17 00:43:07;;;;;;;5.97;3.00;;;23.00;59.20;;;;;;5083689;28;27333;-64
2021/06/17 00:45:52;;;;;;;3.30;3.00;;;23.00;59.20;;;;;;5083884;28;27333;-64
2021/06/17 00:48:37;;;;;;;4.78;2.85;;;23.00;59.40;;;;;;5084448;28;27376;-63
2021/06/17 00:51:21;;;;;;;2.75;2.50;;;22.90;59.20;;;;;;5084352;28;27351;-64
2021/06/17 00:54:05;;;;;;;4.30;2.85;;;22.90;59.20;;;;;;5085004;28;27333;-64
2021/06/17 00:56:50;;;;;;;5.32;2.95;;;22.90;59.20;;;;;;5066548;28;27334;-63
2021/06/17 00:59:35;;;;;;;3.13;2.50;;;22.80;59.20;;;;;;5084782;28;27431;-63
2021/06/17 01:02:19;;;;;;;3.83;2.60;;;22.80;59.50;;;;;;5084862;28;27393;-64
2021/06/17 01:05:06;;;;;;;6.38;2.53;;;22.70;59.60;;;;;;5069498;28;27860;-64
2021/06/17 01:08:06;;;;;;;2.95;2.33;;;22.70;59.70;;;;;;5084831;28;27414;-64
2021/06/17 01:11:02;;;;;;;5.43;2.60;;;22.60;59.60;;;;;;5083180;28;27432;-63
2021/06/17 01:13:57;;;;;;;4.53;2.95;;;22.60;59.70;;;;;;5084693;28;27467;-63
2021/06/17 01:16:49;;;;;;;4.10;2.53;;;22.60;59.70;;;;;;5080374;28;27376;-63
2021/06/17 01:20:02;;;;;;;4.10;2.63;;;22.50;59.70;;;;;;5083844;28;27372;-63
2021/06/17 01:22:59;;;;;;;3.03;2.40;;;22.50;59.80;;;;;;5083627;28;27454;-63
2021/06/17 01:26:21;;;;;;;4.25;2.50;;;22.50;59.90;;;;;;5083848;28;27386;-64
2021/06/17 01:29:05;;;;;;;3.72;2.80;;;22.40;59.70;;;;;;5083445;28;27406;-63
2021/06/17 01:31:50;;;;;;;4.65;2.60;;;22.40;59.80;;;;;;5083372;28;27340;-64
2021/06/17 01:34:34;;;;;;;2.85;2.55;;;22.30;59.80;;;;;;5097861;27;27349;-64
2021/06/17 01:37:21;;;;;;;8.43;2.67;;;22.30;59.90;;;;;;5084020;28;27384;-63
2021/06/17 01:40:09;;;;;;;3.55;2.63;;;22.30;60.10;;;;;;5097712;27;27340;-64
2021/06/17 01:42:53;;;;;;;4.20;3.00;;;22.20;60.10;;;;;;5083961;28;27389;-64
2021/06/17 01:45:38;;;;;;;3.30;3.00;;;22.10;60.10;;;;;;5082589;28;27338;-64
2021/06/17 01:48:22;;;;;;;3.55;3.00;;;22.10;60.20;;;;;;5083488;28;27317;-64
2021/06/17 01:51:07;;;;;;;3.28;2.72;;;22.10;60.30;;;;;;5083388;28;27973;-64
2021/06/17 01:53:52;;;;;;;3.97;2.35;;;22.10;60.40;;;;;;5097700;27;27314;-64
2021/06/17 01:56:38;;;;;;;4.18;2.72;;;22.10;60.40;;;;;;5065869;28;27362;-64
2021/06/17 01:59:23;;;;;;;6.35;3.03;;;22.10;60.30;;;;;;5084070;28;27325;-64
2021/06/17 02:02:08;;;;;;;4.53;2.72;;;22.00;60.40;;;;;;5097552;27;27446;-64
2021/06/17 02:04:52;;;;;;;4.78;2.83;;;22.00;60.60;;;;;;5082978;28;27364;-63
2021/06/17 02:07:40;;;;;;;3.00;2.40;;;22.00;60.60;;;;;;5093967;27;27324;-64
2021/06/17 02:10:25;;;;;;;3.35;2.70;;;21.90;60.60;;;;;;5083808;28;27531;-64
2021/06/17 02:13:14;;;;;;;3.92;3.22;;;21.90;60.60;;;;;;5097190;27;27525;-64
2021/06/17 02:15:58;;;;;;;4.47;2.35;;;21.90;60.50;;;;;;5083479;28;27431;-64
2021/06/17 02:18:43;;;;;;;5.03;2.53;;;21.80;60.70;;;;;;5083797;28;27408;-64
2021/06/17 02:21:29;;;;;;;3.53;2.67;;;21.80;60.70;;;;;;5097340;27;27459;-64
2021/06/17 02:24:14;;;;;;;3.50;2.55;;;21.80;60.90;;;;;;5083199;28;27554;-63
2021/06/17 02:27:08;;;;;;;7.28;3.10;;;21.70;60.80;;;;;;5082783;28;27596;-63
2021/06/17 02:29:53;;;;;;;4.25;2.42;;;21.70;60.90;;;;;;5084735;28;27478;-63
2021/06/17 02:32:40;;;;;;;5.40;2.67;;;21.70;60.90;;;;;;5071662;28;27689;-64
2021/06/17 02:35:25;;;;;;;3.47;2.85;;;21.60;60.80;;;;;;5086508;28;27426;-63
2021/06/17 02:38:10;;;;;;;4.65;3.08;;;21.60;61.00;;;;;;5100805;27;27391;-64
2021/06/17 02:40:57;;;;;;;5.75;2.45;;;21.60;61.00;;;;;;5068873;28;27401;-63
2021/06/17 02:43:44;;;;;;;6.50;2.72;;;21.50;61.00;;;;;;5086282;28;27420;-63
2021/06/17 02:46:29;;;;;;;5.50;2.88;;;21.50;61.10;;;;;;5070178;28;27419;-63
2021/06/17 02:49:13;;;;;;;7.22;2.95;;;21.50;61.20;;;;;;5100485;27;27337;-63
2021/06/17 02:51:58;;;;;;;4.38;2.90;;;21.40;61.10;;;;;;5071896;28;27345;-63
2021/06/17 02:54:43;;;;;;;4.25;3.05;;;21.50;61.20;;;;;;5071670;28;26971;-63
2021/06/17 02:57:52;;;;;;;4.13;2.53;;;21.40;61.20;;;;;;5100403;27;27393;-64
2021/06/17 03:00:37;;;;;;;7.93;3.10;;;21.40;61.20;;;;;;5085157;28;27494;-64
2021/06/17 03:03:41;;;;;;;6.97;3.45;;;21.40;61.20;;;;;;5086801;28;27411;-63
2021/06/17 03:06:33;;;;;;;5.88;2.70;;;21.40;61.20;;;;;;5085878;28;27488;-63
2021/06/17 03:09:25;;;;;;;3.72;2.65;;;21.30;61.10;;;;;;5086328;28;27397;-63
2021/06/17 03:12:10;;;;;;;3.40;2.80;;;21.30;60.90;;;;;;5085834;28;27361;-64
2021/06/17 03:14:58;;;;;;;3.15;2.38;;;21.30;61.00;;;;;;5086354;28;27418;-63
2021/06/17 03:17:44;;;;;;;4.10;3.08;;;21.20;61.00;;;;;;5068308;28;27396;-63
2021/06/17 03:20:34;;;;;;;5.22;2.83;;;21.20;61.20;;;;;;5085633;28;27869;-63
2021/06/17 03:23:21;;;;;;;9.02;3.03;;;21.20;61.30;;;;;;5085363;28;27485;-64
2021/06/17 03:26:08;;;;;;;3.33;2.95;;;21.10;61.40;;;;;;5082442;28;27388;-63
2021/06/17 03:28:54;;;;;;;4.10;3.17;;;21.10;61.50;;;;;;5086064;28;27333;-63
2021/06/17 03:31:38;;;;;;;3.38;2.80;;;21.10;61.50;;;;;;5085479;28;27399;-64
2021/06/17 03:34:24;;;;;;;5.20;3.00;;;21.00;61.60;;;;;;5085424;28;27356;-63
2021/06/17 03:37:08;;;;;;;5.68;3.30;;;21.00;61.70;;;;;;5067615;28;27345;-63
2021/06/17 03:39:53;;;;;;;6.93;3.17;;;21.00;61.80;;;;;;5085494;28;27339;-63
2021/06/17 03:42:38;;;;;;;4.80;2.92;;;21.00;61.90;;;;;;5085036;28;27395;-63
2021/06/17 03:45:24;;;;;;;6.25;2.97;;;21.00;62.10;;;;;;5070295;28;27349;-63
2021/06/17 03:48:08;;;;;;;5.10;3.17;;;21.00;62.30;;;;;;5085990;28;27377;-63
2021/06/17 03:50:53;;;;;;;4.28;3.17;;;20.90;62.20;;;;;;5085297;28;27374;-63
2021/06/17 03:53:38;;;;;;;5.40;3.25;;;21.00;62.50;;;;;;5084706;28;27971;-63
2021/06/17 03:56:23;;;;;;;4.22;3.17;;;20.90;62.50;;;;;;5085085;28;27370;-63
2021/06/17 03:59:07;;;;;;;5.88;2.90;;;21.00;62.70;;;;;;5100169;27;27379;-65
2021/06/17 04:01:52;;;;;;;5.80;3.28;;;20.90;62.70;;;;;;5099499;27;27340;-64
2021/06/17 04:04:37;;;;;;;6.43;2.88;;;20.90;62.80;;;;;;5067432;28;27405;-64
2021/06/17 04:07:23;;;;;;;10.95;3.63;;;20.90;62.90;;;;;;5085552;28;27316;-64
2021/06/17 04:10:09;;;;;;;8.70;2.72;;;21.00;62.90;;;;;;5053119;28;27314;-64
2021/06/17 04:12:55;;;;;;;6.00;3.22;;;21.00;62.90;;;;;;5081433;28;27391;-64
2021/06/17 04:15:40;;;;;;;7.78;3.85;;;20.90;63.00;;;;;;5084555;28;27455;-64
2021/06/17 04:18:24;;;;;;;5.60;3.25;;;20.90;63.00;;;;;;5099324;27;27521;-62
2021/06/17 04:21:09;;;;;;;6.60;3.10;;;20.90;63.20;;;;;;5084111;28;27470;-63
2021/06/17 04:23:56;;;;;;;5.25;3.28;;;20.90;63.50;;;;;;5084440;28;27333;-63
2021/06/17 04:26:40;;;;;;;3.85;3.45;;;20.90;63.50;;;;;;5067092;28;27509;-62
2021/06/17 04:29:25;;;;;;;6.25;3.25;;;20.90;63.40;;;;;;5099024;27;27439;-62
2021/06/17 04:32:10;;;;;;;3.53;2.47;;;20.90;63.30;;;;;;5085398;28;27411;-62
2021/06/17 04:34:55;;;;;;;6.93;3.90;;;21.00;63.30;;;;;;5080993;28;27481;-63
2021/06/17 04:37:41;;;;;;;8.27;3.35;;;21.00;63.50;;;;;;5080791;28;27470;-63
2021/06/17 04:40:25;;;;;;;6.53;3.33;;;20.90;63.40;;;;;;5084234;28;27483;-63
2021/06/17 04:43:10;;;;;;;7.78;3.15;;;21.00;63.40;;;;;;5081208;28;27482;-63
2021/06/17 04:45:55;;;;;;;6.18;3.22;;;21.00;63.60;;;;;;5083965;28;27596;-63
2021/06/17 04:48:40;;;;;;;6.32;3.20;;;21.00;63.90;;;;;;5083608;28;27876;-63
2021/06/17 04:51:25;;;;;;;5.03;3.20;;;21.00;64.00;;;;;;5069927;28;27507;-63
2021/06/17 04:54:18;;;;;;;3.75;3.15;;;21.00;64.20;;;;;;5083721;28;27452;-63
2021/06/17 04:57:03;;;;;;;5.50;3.47;;;21.00;64.30;;;;;;5081012;28;27429;-63
2021/06/17 04:59:48;;;;;;;7.60;3.50;;;21.00;64.20;;;;;;5080639;28;27333;-63
2021/06/17 05:02:32;;;;;;;5.18;3.72;;;21.00;64.50;;;;;;5084130;28;27539;-63
2021/06/17 05:05:17;;;;;;;4.68;3.10;;;21.00;64.60;;;;;;5098326;27;27406;-63
2021/06/17 05:11:04;;;;;;;8.27;3.40;;;21.10;64.90;;;;;;5080759;28;27445;-63
2021/06/17 05:13:49;;;;;;;11.65;4.22;;;21.10;65.00;;;;;;5084429;28;27431;-63
2021/06/17 05:16:33;;;;;;;12.00;3.88;;;21.10;65.20;;;;;;5080377;28;27438;-63
2021/06/17 05:19:18;;;;;;;4.13;3.53;;;21.10;65.20;;;;;;5083748;28;27403;-63
2021/06/17 05:22:02;;;;;;;8.20;3.70;;;21.10;65.40;;;;;;5083504;28;27860;-63
2021/06/17 05:24:47;;;;;;;3.60;3.30;;;21.20;65.60;;;;;;5083576;28;27491;-63
2021/06/17 05:27:32;;;;;;;6.75;4.07;;;21.20;65.90;;;;;;5084218;28;27409;-63
2021/06/17 05:30:17;;;;;;;3.65;3.28;;;21.20;65.90;;;;;;5065648;28;27492;-63
2021/06/17 05:33:02;;;;;;;4.68;3.95;;;21.20;66.10;;;;;;5084371;28;27419;-63
2021/06/17 05:35:47;;;;;;;7.85;3.80;;;21.30;66.30;;;;;;5083777;28;27473;-63
2021/06/17 05:38:33;;;;;;;6.30;4.10;;;21.30;66.40;;;;;;5051647;28;27441;-63
2021/06/17 05:41:18;;;;;;;5.05;3.65;;;21.30;66.70;;;;;;5084240;28;27423;-64
2021/06/17 05:44:02;;;;;;;6.05;4.95;;;21.40;66.70;;;;;;5082261;28;27875;-64
2021/06/17 05:46:47;;;;;;;8.88;4.45;;;21.40;66.70;;;;;;5083352;28;27421;-63
2021/06/17 05:49:31;;;;;;;7.22;4.40;;;21.60;66.90;;;;;;5083295;28;27439;-63
2021/06/17 05:52:16;;;;;;;8.77;5.13;;;21.70;66.60;;;;;;5098352;27;27489;-64
2021/06/17 05:55:01;;;;;;;6.78;4.32;;;22.00;66.40;;;;;;5084466;28;28059;-64
2021/06/17 05:57:45;;;;;;;9.32;5.45;;;22.20;65.90;;;;;;5084542;28;27423;-64
2021/06/17 06:00:29;;;;;;;6.03;4.70;;;22.40;65.60;;;;;;5083498;28;27507;-64
2021/06/17 06:03:14;;;;;;;4.68;4.18;;;22.60;65.50;;;;;;5080384;28;27385;-64
2021/06/17 06:05:58;;;;;;;5.32;4.05;;;22.80;65.70;;;;;;5083783;28;27327;-64
2021/06/17 06:08:43;;;;;;;9.88;5.32;;;23.00;65.50;;;;;;5084159;28;27423;-65
2021/06/17 06:11:30;;;;;;;6.40;4.80;;;23.30;64.70;;;;;;5083340;28;27610;-64
2021/06/17 06:14:14;;;;;;;6.15;4.57;;;23.40;64.30;;;;;;5080376;28;27428;-65
2021/06/17 06:16:59;;;;;;;9.05;5.10;;;23.70;63.60;;;;;;5084318;28;27375;-66
2021/06/17 06:19:44;;;;;;;9.13;5.22;;;23.90;63.40;;;;;;5083503;28;27377;-65
2021/06/17 06:22:28;;;;;;;9.50;5.25;;;24.10;62.80;;;;;;5084332;28;27351;-65
2021/06/17 06:25:13;;;;;;;9.00;5.25;;;24.20;62.20;;;;;;5083234;28;27399;-65
2021/06/17 06:27:57;;;;;;;7.53;5.00;;;24.40;62.10;;;;;;5084124;28;27435;-65
2021/06/17 06:30:42;;;;;;;6.65;5.03;;;24.60;62.20;;;;;;5084175;28;27527;-65
2021/06/17 06:33:27;;;;;;;6.43;4.15;;;24.80;62.00;;;;;;5097828;27;26987;-65
2021/06/17 06:36:11;;;;;;;6.28;4.03;;;24.90;61.50;;;;;;5083390;28;27378;-65
2021/06/17 06:38:55;;;;;;;6.50;4.10;;;25.10;60.70;;;;;;5082590;28;27943;-65
2021/06/17 06:41:41;;;;;;;10.23;4.72;;;25.20;60.70;;;;;;5097480;27;27430;-66
2021/06/17 06:44:25;;;;;;;5.97;3.92;;;25.40;60.90;;;;;;5083908;28;27379;-66
2021/06/17 06:47:10;;;;;;;7.50;4.68;;;25.50;61.10;;;;;;5082382;28;27715;-66
2021/06/17 06:49:54;;;;;;;5.75;4.18;;;25.70;60.50;;;;;;5083039;28;27852;-67
2021/06/17 06:52:40;;;;;;;6.38;4.47;;;25.80;60.90;;;;;;5083852;28;27473;-66
2021/06/17 06:55:25;;;;;;;6.22;4.28;;;26.00;60.50;;;;;;5083202;28;27344;-67
2021/06/17 06:58:11;;;;;;;6.80;3.88;;;26.20;60.80;;;;;;5083147;28;27528;-66
2021/06/17 07:00:56;;;;;;;6.38;3.80;;;26.30;59.70;;;;;;5083745;28;27875;-66
2021/06/17 07:03:42;;;;;;;4.20;3.28;;;26.40;59.80;;;;;;5065389;28;27432;-66
2021/06/17 07:06:26;;;;;;;5.40;3.65;;;26.60;60.20;;;;;;5080755;28;27404;-67
2021/06/17 07:09:11;;;;;;;6.22;4.03;;;26.70;61.30;;;;;;5082975;28;27401;-67
2021/06/17 07:11:56;;;;;;;6.32;4.00;;;26.90;59.90;;;;;;5083609;28;27368;-67
2021/06/17 07:14:40;;;;;;;6.15;3.85;;;27.10;59.40;;;;;;5079643;28;27336;-66
2021/06/17 07:17:25;;;;;;;5.90;3.92;;;27.20;59.80;;;;;;5086702;28;27395;-66
2021/06/17 07:20:10;;;;;;;5.10;3.28;;;27.40;60.00;;;;;;5087105;28;27327;-66
2021/06/17 07:22:56;;;;;;;5.97;3.25;;;27.60;59.40;;;;;;5086672;28;27402;-65
2021/06/17 07:25:41;;;;;;;6.57;3.53;;;27.80;59.00;;;;;;5082623;28;27351;-66
2021/06/17 07:28:26;;;;;;;4.72;3.10;;;27.90;58.80;;;;;;5085942;28;27407;-67
2021/06/17 07:31:11;;;;;;;4.85;3.40;;;28.10;58.20;;;;;;5071864;28;27335;-67
2021/06/17 07:33:56;;;;;;;4.25;3.47;;;28.20;59.10;;;;;;5086184;28;27570;-66
2021/06/17 07:36:40;;;;;;;4.30;3.83;;;28.40;58.30;;;;;;5086024;28;27408;-68
2021/06/17 07:39:25;;;;;;;4.75;3.55;;;28.50;57.30;;;;;;5086794;28;27309;-66
2021/06/17 07:42:10;;;;;;;6.95;3.55;;;28.60;56.40;;;;;;5082615;28;27379;-65
2021/06/17 07:44:55;;;;;;;10.35;4.10;;;28.80;55.30;;;;;;5082002;28;27562;-68
2021/06/17 07:47:40;;;;;;;6.55;3.97;;;28.80;48.00;;;;;;5086632;28;27490;-66
2021/06/17 07:50:24;;;;;;;8.15;3.65;;;29.00;48.20;;;;;;5085846;28;27515;-66
2021/06/17 07:53:09;;;;;;;5.78;3.50;;;29.10;47.60;;;;;;5068157;28;27486;-66
2021/06/17 07:55:53;;;;;;;5.75;3.60;;;29.20;46.90;;;;;;5085642;28;27865;-66
2021/06/17 07:58:37;;;;;;;5.45;4.00;;;29.30;45.00;;;;;;5082422;28;27407;-66
2021/06/17 08:01:22;;;;;;;5.53;4.00;;;29.40;43.80;;;;;;5085689;28;27462;-67
2021/06/17 08:04:07;;;;;;;12.75;4.43;;;29.60;43.40;;;;;;5085478;28;27533;-66
2021/06/17 08:06:51;;;;;;;14.30;7.65;;;29.70;43.80;;;;;;5086237;28;27452;-67
2021/06/17 08:09:36;;;;;;;16.95;7.65;;;29.90;43.50;;;;;;5086187;28;27454;-66
2021/06/17 08:12:22;;;;;;;17.58;9.13;;;30.00;42.40;;;;;;5086237;28;27426;-69
2021/06/17 08:15:07;;;;;;;15.43;9.50;;;30.10;43.20;;;;;;5085104;28;27006;-69
2021/06/17 08:17:53;;;;;;;12.15;7.45;;;30.30;45.60;;;;;;5086007;28;27415;-70
2021/06/17 08:24:19;;;;;;;8.00;5.97;;;30.80;49.70;;;;;;5104611;28;27435;-70
2021/06/17 08:27:05;;;;;;;7.68;4.45;;;31.00;50.10;;;;;;5088724;28;27409;-70
2021/06/17 08:29:49;;;;;;;11.30;5.55;;;31.30;50.80;;;;;;5072617;28;27423;-70
2021/06/17 08:32:34;;;;;;;6.75;4.85;;;31.40;50.80;;;;;;5104454;28;27487;-70
2021/06/17 08:35:18;;;;;;;7.32;4.70;;;31.60;51.10;;;;;;5104366;28;27347;-70
2021/06/17 08:38:03;;;;;;;8.57;5.22;;;31.80;51.50;;;;;;5104579;28;27336;-71
2021/06/17 08:40:48;;;;;;;9.55;5.03;;;32.00;51.50;;;;;;5104074;28;27359;-71
2021/06/17 08:43:33;;;;;;;9.18;4.43;;;32.20;52.00;;;;;;5104499;28;27400;-71
2021/06/17 08:46:18;;;;;;;7.13;3.83;;;32.30;51.90;;;;;;5089111;28;27468;-71
2021/06/17 08:49:02;;;;;;;8.15;3.60;;;32.40;51.20;;;;;;5104454;28;27419;-71
2021/06/17 08:51:48;;;;;;;6.60;3.33;;;32.50;50.30;;;;;;5090069;28;27429;-71
2021/06/17 08:54:33;;;;;;;3.88;3.30;;;32.60;52.10;;;;;;5089580;28;27432;-71
2021/06/17 08:57:18;;;;;;;8.68;3.40;;;32.70;52.10;;;;;;5104308;28;27359;-71
2021/06/17 09:00:27;;;;;;;2.95;2.67;;;32.80;52.60;;;;;;5084644;28;27466;-71
2021/06/17 09:03:14;;;;;;;2.90;2.40;;;32.90;52.80;;;;;;5084929;28;27482;-71
2021/06/17 09:06:00;;;;;;;8.40;3.20;;;33.10;53.20;;;;;;5085400;28;27509;-71
2021/06/17 09:08:57;;;;;;;7.40;2.83;;;33.30;53.30;;;;;;5085728;28;27375;-71
2021/06/17 09:11:42;;;;;;;4.65;2.60;;;33.20;53.10;;;;;;5084942;28;27375;-70
2021/06/17 09:14:28;;;;;;;7.72;3.10;;;33.00;53.80;;;;;;5084601;28;27321;-71
2021/06/17 09:17:13;;;;;;;6.38;3.20;;;32.90;54.70;;;;;;5085579;28;27399;-71
2021/06/17 09:19:57;;;;;;;7.32;2.60;;;33.00;55.00;;;;;;5085157;28;27391;-71
2021/06/17 09:22:42;;;;;;;3.08;2.35;;;33.20;54.70;;;;;;5081023;28;27420;-71
2021/06/17 09:25:27;;;;;;;3.88;2.58;;;33.40;55.00;;;;;;5084228;28;27341;-71
2021/06/17 09:28:11;;;;;;;6.53;2.78;;;33.70;54.60;;;;;;5085191;28;27380;-72
2021/06/17 09:30:56;;;;;;;3.70;2.25;;;33.80;54.10;;;;;;5067010;28;27372;-72
2021/06/17 09:33:41;;;;;;;7.03;2.90;;;34.00;53.50;;;;;;5085049;28;27403;-71
2021/06/17 09:36:34;;;;;;;3.92;2.40;;;34.20;53.20;;;;;;5084163;28;28090;-71
2021/06/17 09:39:19;;;;;;;6.18;2.42;;;34.30;53.00;;;;;;5084527;28;27470;-71
2021/06/17 09:42:10;;;;;;;4.70;2.80;;;34.40;52.70;;;;;;5084559;28;27489;-72
2021/06/17 09:44:55;;;;;;;7.47;2.70;;;34.50;52.70;;;;;;5083758;28;27466;-72
2021/06/17 09:47:39;;;;;;;3.33;2.40;;;34.60;53.20;;;;;;5084441;28;27952;-72
2021/06/17 09:50:25;;;;;;;3.15;2.35;;;34.70;52.90;;;;;;5084365;28;27331;-71
2021/06/17 09:53:26;;;;;;;3.05;2.25;;;34.90;52.70;;;;;;5084476;28;27456;-72
2021/06/17 09:56:14;;;;;;;3.63;2.72;;;35.10;54.10;;;;;;5083629;28;27345;-72
2021/06/17 09:58:58;;;;;;;2.95;2.70;;;35.10;53.50;;;;;;5080493;28;27369;-72
2021/06/17 10:01:45;;;;;;;3.20;2.33;;;35.10;53.30;;;;;;5084584;28;27363;-71
2021/06/17 10:04:30;;;;;;;5.25;3.50;;;35.10;51.70;;;;;;5084407;28;27455;-72
2021/06/17 10:07:18;;;;;;;3.58;2.47;;;35.20;53.10;;;;;;5083579;28;27339;-72
2021/06/17 10:10:03;;;;;;;5.80;3.75;;;35.30;51.70;;;;;;5084142;28;27426;-72
2021/06/17 10:12:48;;;;;;;3.30;2.25;;;35.30;53.20;;;;;;5080125;28;27470;-72
2021/06/17 10:15:32;;;;;;;4.18;2.95;;;35.40;52.30;;;;;;5083614;28;27416;-71
2021/06/17 10:18:17;;;;;;;6.05;2.63;;;35.50;53.10;;;;;;5084019;28;27441;-71
2021/06/17 10:21:02;;;;;;;3.60;2.70;;;35.30;53.50;;;;;;5084321;28;27855;-71
2021/06/17 10:23:49;;;;;;;2.75;2.55;;;35.00;54.20;;;;;;5083925;28;27465;-71
2021/06/17 10:26:40;;;;;;;2.60;2.40;;;34.80;54.40;;;;;;5097347;27;27421;-71
2021/06/17 10:29:28;;;;;;;3.83;2.63;;;34.60;55.60;;;;;;5083309;28;27397;-71
2021/06/17 10:32:16;;;;;;;4.22;2.97;;;34.60;55.10;;;;;;5084184;28;27458;-71
2021/06/17 10:35:01;;;;;;;4.50;3.05;;;34.50;55.80;;;;;;5083859;28;27394;-71
2021/06/17 10:37:53;;;;;;;5.32;2.45;;;34.50;55.30;;;;;;5084200;28;27402;-71
2021/06/17 10:40:43;;;;;;;5.38;2.83;;;34.50;55.20;;;;;;5083388;28;27399;-71
2021/06/17 10:43:27;;;;;;;3.08;2.35;;;34.70;57.60;;;;;;5081448;28;27857;-71
2021/06/17 10:46:14;;;;;;;3.03;2.50;;;35.00;56.80;;;;;;5083006;28;27418;-71
2021/06/17 10:53:32;;;;;;;3.30;2.70;;;35.50;52.90;;;;;;5084052;28;27445;-73
2021/06/17 10:56:38;;;;;;;4.00;2.85;;;35.70;52.50;;;;;;5086709;28;27320;-72
2021/06/17 11:03:53;;;;;;;3.97;2.55;;;35.90;51.90;;;;;;5083757;28;27318;-72
2021/06/17 11:06:52;;;;;;;3.10;2.40;;;36.00;52.30;;;;;;5086739;28;26864;-73
2021/06/17 11:10:03;;;;;;;3.33;2.97;;;36.10;52.60;;;;;;5087306;28;27354;-70
2021/06/17 11:17:43;;;;;;;4.10;3.22;;;36.10;50.90;;;;;;5083679;28;27403;-72
2021/06/17 11:20:41;;;;;;;3.35;2.75;;;36.20;52.20;;;;;;5086928;28;27321;-71
2021/06/17 11:23:32;;;;;;;5.22;2.55;;;36.20;51.80;;;;;;5086970;28;27378;-71
2021/06/17 11:26:36;;;;;;;5.90;2.97;;;36.20;51.10;;;;;;5086620;28;28680;-73
2021/06/17 11:29:51;;;;;;;8.43;3.47;;;36.20;51.20;;;;;;5082703;28;27573;-70
2021/06/17 11:32:49;;;;;;;5.10;2.63;;;36.20;50.60;;;;;;5083311;28;27329;-71
2021/06/17 11:35:36;;;;;;;3.38;2.78;;;36.20;51.70;;;;;;5086581;28;27442;-72
2021/06/17 11:38:23;;;;;;;3.22;2.83;;;36.20;51.40;;;;;;5085108;28;27593;-72
2021/06/17 11:41:30;;;;;;;6.03;2.90;;;36.20;51.80;;;;;;5085828;28;27372;-72
2021/06/17 11:44:22;;;;;;;4.95;2.67;;;36.10;51.10;;;;;;5086283;28;27388;-74
2021/06/17 11:47:18;;;;;;;4.78;2.65;;;36.10;51.10;;;;;;5084790;28;27407;-71
2021/06/17 11:50:07;;;;;;;5.13;2.85;;;36.00;50.50;;;;;;5082674;28;27368;-72
2021/06/17 11:52:58;;;;;;;5.22;2.92;;;36.00;49.40;;;;;;5085989;28;27483;-72
2021/06/17 11:55:53;;;;;;;3.63;2.67;;;36.00;51.60;;;;;;5086751;28;27312;-70
2021/06/17 11:58:43;;;;;;;6.22;3.20;;;35.90;51.70;;;;;;5085604;28;27400;-72
2021/06/17 12:01:37;;;;;;;4.07;3.15;;;35.90;48.80;;;;;;5085998;28;27466;-71
2021/06/17 12:04:38;;;;;;;6.45;3.10;;;35.90;51.00;;;;;;5068479;28;26922;-70
2021/06/17 12:07:46;;;;;;;3.88;2.75;;;35.90;51.10;;;;;;5086415;28;27402;-70
2021/06/17 12:10:39;;;;;;;6.45;3.10;;;35.90;51.30;;;;;;5086326;28;27472;-72
2021/06/17 12:13:29;;;;;;;4.38;3.03;;;35.90;50.80;;;;;;5085516;28;27368;-70
2021/06/17 12:16:21;;;;;;;3.67;3.30;;;35.90;50.40;;;;;;5085475;28;27496;-71
2021/06/17 12:19:22;;;;;;;3.78;2.88;;;35.90;51.10;;;;;;5085729;28;27460;-71
2021/06/17 12:22:13;;;;;;;3.95;3.35;;;35.90;55.70;;;;;;5086310;28;27328;-70
2021/06/17 12:25:04;;;;;;;5.22;2.90;;;36.00;53.20;;;;;;5083107;28;27451;-72
2021/06/17 12:27:55;;;;;;;4.25;2.92;;;36.00;53.90;;;;;;5086721;28;27360;-72
2021/06/17 12:30:55;;;;;;;3.63;2.67;;;36.00;54.20;;;;;;5067557;28;27401;-71
2021/06/17 12:33:46;;;;;;;6.53;3.10;;;36.10;55.80;;;;;;5085382;28;27873;-72
2021/06/17 12:36:37;;;;;;;5.30;3.13;;;36.00;51.40;;;;;;5085920;28;27307;-69
2021/06/17 12:39:27;;;;;;;3.33;2.80;;;36.00;54.60;;;;;;5086033;28;27416;-71
2021/06/17 12:42:20;;;;;;;7.68;2.90;;;36.00;55.40;;;;;;5085112;28;27335;-71
2021/06/17 12:45:22;;;;;;;5.70;3.30;;;36.00;54.70;;;;;;5085192;28;27431;-72
2021/06/17 12:54:53;;;;;;;4.50;2.97;;;35.90;54.40;;;;;;5085330;28;27390;-71
2021/06/17 12:57:44;;;;;;;2.78;2.58;;;35.90;53.80;;;;;;5085517;28;27411;-71
2021/06/17 13:00:37;;;;;;;3.83;2.70;;;35.80;52.70;;;;;;5084345;28;27462;-71
2021/06/17 13:03:26;;;;;;;4.53;2.80;;;35.80;54.40;;;;;;5085240;28;27511;-71
2021/06/17 13:06:34;;;;;;;3.05;2.63;;;35.80;54.80;;;;;;5084070;28;26947;-71
2021/06/17 13:09:34;;;;;;;3.33;2.75;;;35.80;53.20;;;;;;5084882;28;27905;-70
2021/06/17 13:12:31;;;;;;;5.32;3.22;;;35.80;52.70;;;;;;5085297;28;27470;-71
2021/06/17 13:15:27;;;;;;;10.93;2.88;;;35.80;53.00;;;;;;5084969;28;27340;-70
2021/06/17 13:18:19;;;;;;;4.40;2.65;;;35.70;47.60;;;;;;5081263;28;27333;-71
2021/06/17 13:21:16;;;;;;;5.88;2.78;;;35.70;44.20;;;;;;5084118;28;27418;-71
2021/06/17 13:24:19;;;;;;;6.00;2.70;;;35.60;44.80;;;;;;5069935;28;27392;-70
2021/06/17 13:27:17;;;;;;;5.05;2.83;;;35.50;43.50;;;;;;5084868;28;27489;-70
2021/06/17 13:30:44;;;;;;;6.18;3.15;;;35.50;45.60;;;;;;5070419;28;27310;-70
2021/06/17 13:34:13;;;;;;;6.45;3.05;;;35.40;44.40;;;;;;5084084;28;27317;-69
2021/06/17 13:37:40;;;;;;;7.95;3.05;;;35.50;46.30;;;;;;5083568;28;27423;-70
2021/06/17 13:41:06;;;;;;;6.50;2.50;;;35.40;49.20;;;;;;5084500;28;27489;-69
2021/06/17 13:44:15;;;;;;;8.75;3.22;;;35.50;51.80;;;;;;5083389;28;27359;-71
2021/06/17 13:47:41;;;;;;;4.30;2.50;;;35.50;52.90;;;;;;5082851;28;27852;-70
2021/06/17 13:51:06;;;;;;;6.53;2.58;;;35.50;49.70;;;;;;5083453;28;27685;-70
2021/06/17 13:54:31;;;;;;;8.50;2.55;;;35.60;48.50;;;;;;5084615;28;27430;-70
2021/06/17 13:57:15;;;;;;;3.42;2.42;;;35.50;47.30;;;;;;5083917;28;27467;-73
2021/06/17 14:00:21;;;;;;;3.88;2.42;;;35.50;51.30;;;;;;5066385;28;27974;-70
2021/06/17 14:03:12;;;;;;;5.47;2.50;;;35.50;47.90;;;;;;5084525;28;27456;-70
2021/06/17 14:06:03;;;;;;;7.53;2.55;;;35.50;46.50;;;;;;5084016;28;27433;-69
2021/06/17 14:13:07;;;;;;;4.68;2.42;;;35.40;41.30;;;;;;5080844;28;27906;-70
2021/06/17 14:16:12;;;;;;;6.13;3.13;;;35.40;44.50;;;;;;5080507;28;27351;-70
2021/06/17 14:23:37;;;;;;;4.32;2.92;;;35.30;47.30;;;;;;5089200;28;27367;-72
2021/06/17 14:26:22;;;;;;;3.83;2.80;;;35.30;49.00;;;;;;5105847;28;27492;-70
2021/06/17 14:33:49;;;;;;;7.40;3.00;;;35.40;49.20;;;;;;5104695;28;26841;-77
2021/06/17 14:57:47;;;;;;;4.97;3.08;;;35.40;47.60;;;;;;5104201;28;27829;-76
2021/06/17 15:00:42;;;;;;;6.30;2.50;;;35.40;48.80;;;;;;5108203;28;27486;-69
2021/06/17 15:08:17;;;;;;;4.78;2.80;;;35.30;47.50;;;;;;5104331;28;27325;-70
2021/06/17 15:15:20;;;;;;;6.78;2.85;;;35.20;48.20;;;;;;5063184;28;27502;-75
2021/06/17 15:22:36;;;;;;;5.35;2.88;;;35.10;47.50;;;;;;5063933;28;27480;-72
2021/06/17 15:29:58;;;;;;;4.28;2.53;;;34.80;47.30;;;;;;5064109;28;27467;-70
2021/06/17 15:37:13;;;;;;;3.67;2.80;;;34.50;48.90;;;;;;5064650;28;27381;-74
2021/06/17 16:25:09;;;;;;;8.40;3.20;;;32.60;52.80;;;;;;5102757;28;27300;-70
2021/06/17 16:32:00;;;;;;;4.32;3.10;;;32.40;53.40;;;;;;5103224;28;27412;-69
2021/06/17 17:19:25;;;;;;;8.27;3.42;;;31.30;58.90;;;;;;5081361;28;27410;-70
2021/06/17 17:26:28;;;;;;;8.77;3.50;;;31.20;60.30;;;;;;5084458;28;27593;-67
2021/06/17 17:29:56;;;;;;;8.35;3.58;;;31.20;60.10;;;;;;5070426;28;27501;-69
2021/06/17 17:33:07;;;;;;;6.70;3.40;;;31.10;60.90;;;;;;5084822;28;27453;-72
2021/06/17 17:39:58;;;;;;;3.65;3.22;;;31.00;60.70;;;;;;5083875;28;27410;-68
2021/06/17 17:43:53;;;;;;;7.47;3.92;;;30.90;61.70;;;;;;5069436;28;27986;-74
2021/06/17 17:47:11;;;;;;;8.00;3.78;;;30.90;61.50;;;;;;5084358;28;27406;-69